createdAt,value
2023-03-31T00:02:18.262Z,9.67
2023-03-31T00:07:35.402Z,9.69
2023-03-31T00:12:51.501Z,9.57
2023-03-31T00:15:20.530Z,9.57
2023-03-31T00:17:45.457Z,9.61
2023-03-31T00:20:11.807Z,9.71
2023-03-31T00:22:38.124Z,9.89
2023-03-31T00:25:04.686Z,9.92
2023-03-31T00:27:31.009Z,9.87
2023-03-31T00:29:58.450Z,9.71
2023-03-31T00:32:25.040Z,9.51
2023-03-31T00:34:51.353Z,9.50
2023-03-31T00:37:17.753Z,9.62
2023-03-31T00:39:44.063Z,9.80
2023-03-31T00:42:10.449Z,9.92
2023-03-31T00:44:36.734Z,10.08
2023-03-31T00:47:03.130Z,10.22
2023-03-31T00:49:29.505Z,10.15
2023-03-31T00:51:55.926Z,10.19
2023-03-31T00:54:22.273Z,10.26
2023-03-31T00:56:48.765Z,10.20
2023-03-31T00:59:15.165Z,10.27
2023-03-31T01:01:41.562Z,10.26
2023-03-31T01:04:08.031Z,10.39
2023-03-31T01:06:34.373Z,10.29
2023-03-31T01:09:00.737Z,10.13
2023-03-31T01:11:27.098Z,10.10
2023-03-31T01:13:53.553Z,10.11
2023-03-31T01:16:19.998Z,10.07
2023-03-31T01:18:46.472Z,10.09
2023-03-31T01:21:12.705Z,10.03
2023-03-31T01:23:39.084Z,9.99
2023-03-31T01:26:05.775Z,10.18
2023-03-31T01:28:31.997Z,10.09
2023-03-31T01:30:58.321Z,9.95
2023-03-31T01:33:24.671Z,9.74
2023-03-31T01:35:51.067Z,9.69
2023-03-31T01:38:17.425Z,9.64
2023-03-31T01:40:43.764Z,9.59
2023-03-31T01:43:10.110Z,9.44
2023-03-31T01:45:36.445Z,9.29
2023-03-31T01:48:02.862Z,9.45
2023-03-31T01:50:29.228Z,9.46
2023-03-31T01:52:55.532Z,9.48
2023-03-31T01:55:21.908Z,9.43
2023-03-31T01:57:48.249Z,9.33
2023-03-31T02:00:14.621Z,9.20
2023-03-31T02:02:41.159Z,9.09
2023-03-31T02:05:07.388Z,9.19
2023-03-31T02:07:33.779Z,9.29
2023-03-31T02:10:00.143Z,9.44
2023-03-31T02:12:26.454Z,9.54
2023-03-31T02:15:10.113Z,9.58
2023-03-31T02:17:36.668Z,9.40
2023-03-31T02:20:04.573Z,9.40
2023-03-31T02:22:33.717Z,9.49
2023-03-31T02:25:00.038Z,9.58
2023-03-31T02:27:26.389Z,9.68
2023-03-31T02:29:52.791Z,9.77
2023-03-31T02:32:21.339Z,9.71
2023-03-31T02:34:47.882Z,9.81
2023-03-31T02:37:18.435Z,9.72
2023-03-31T02:39:46.545Z,9.71
2023-03-31T02:42:41.925Z,9.69
2023-03-31T02:44:53.077Z,9.63
2023-03-31T02:47:17.608Z,9.54
2023-03-31T02:49:44.092Z,9.47
2023-03-31T02:52:10.514Z,9.38
2023-03-31T02:54:36.852Z,9.43
2023-03-31T02:57:03.270Z,9.51
2023-03-31T02:59:29.542Z,9.71
2023-03-31T03:01:55.929Z,9.81
2023-03-31T03:04:22.297Z,9.90
2023-03-31T03:06:48.698Z,9.92
2023-03-31T03:09:15.029Z,9.82
2023-03-31T03:11:41.377Z,9.87
2023-03-31T03:14:07.745Z,9.92
2023-03-31T03:16:34.117Z,9.98
2023-03-31T03:19:00.529Z,10.06
2023-03-31T03:21:26.867Z,10.14
2023-03-31T03:24:08.840Z,10.23
2023-03-31T03:26:31.058Z,10.33
2023-03-31T03:28:57.455Z,10.37
2023-03-31T03:31:24.022Z,10.29
2023-03-31T03:33:50.184Z,10.21
2023-03-31T03:36:16.630Z,10.32
2023-03-31T03:38:43.061Z,10.25
2023-03-31T03:41:09.449Z,10.27
2023-03-31T03:43:35.824Z,10.24
2023-03-31T03:46:02.264Z,10.12
2023-03-31T03:48:28.567Z,10.04
2023-03-31T03:50:54.926Z,10.08
2023-03-31T03:53:21.347Z,10.11
2023-03-31T03:55:47.684Z,10.15
2023-03-31T03:58:14.025Z,10.22
2023-03-31T04:00:40.484Z,10.25
2023-03-31T04:03:06.879Z,10.19
2023-03-31T04:05:33.225Z,10.17
2023-03-31T04:07:59.546Z,10.16
2023-03-31T04:10:25.937Z,10.30
2023-03-31T04:12:52.353Z,10.26
2023-03-31T04:15:18.872Z,10.14
2023-03-31T04:17:45.238Z,10.20
2023-03-31T04:20:11.657Z,10.26
2023-03-31T04:22:37.953Z,10.27
2023-03-31T04:25:04.369Z,10.25
2023-03-31T04:27:30.875Z,10.28
2023-03-31T04:29:57.176Z,10.28
2023-03-31T04:32:23.536Z,10.34
2023-03-31T04:34:49.966Z,10.37
2023-03-31T04:37:16.357Z,10.33
2023-03-31T04:39:42.769Z,10.43
2023-03-31T04:42:09.413Z,10.36
2023-03-31T04:44:38.728Z,10.29
2023-03-31T04:47:05.175Z,10.28
2023-03-31T04:49:31.528Z,10.33
2023-03-31T04:51:57.914Z,10.36
2023-03-31T04:54:24.255Z,10.47
2023-03-31T04:56:50.678Z,10.32
2023-03-31T04:59:17.047Z,10.26
2023-03-31T05:01:43.514Z,10.27
2023-03-31T05:04:09.785Z,10.26
2023-03-31T05:06:36.142Z,10.30
2023-03-31T05:09:02.506Z,10.32
2023-03-31T05:11:28.910Z,10.29
2023-03-31T05:13:55.250Z,10.30
2023-03-31T05:16:21.633Z,10.26
2023-03-31T05:18:47.983Z,10.23
2023-03-31T05:21:14.399Z,10.28
2023-03-31T05:23:40.814Z,10.31
2023-03-31T05:26:07.289Z,10.31
2023-03-31T05:28:33.521Z,10.34
2023-03-31T05:30:59.870Z,10.41
2023-03-31T05:33:26.303Z,10.51
2023-03-31T05:35:54.371Z,10.45
2023-03-31T05:38:19.073Z,10.44
2023-03-31T05:40:45.468Z,10.56
2023-03-31T05:43:11.854Z,10.65
2023-03-31T05:45:38.189Z,10.74
2023-03-31T05:48:04.648Z,10.77
2023-03-31T05:50:30.937Z,10.90
2023-03-31T05:52:57.328Z,11.10
2023-03-31T05:55:24.028Z,11.31
2023-03-31T05:57:50.378Z,11.49
2023-03-31T06:00:16.751Z,11.81
2023-03-31T06:02:43.152Z,11.76
2023-03-31T06:05:09.470Z,11.77
2023-03-31T06:07:35.875Z,11.85
2023-03-31T06:10:02.309Z,11.81
2023-03-31T06:12:28.620Z,11.69
2023-03-31T06:14:55.000Z,11.82
2023-03-31T06:17:21.368Z,12.01
2023-03-31T06:19:47.809Z,12.13
2023-03-31T06:22:14.147Z,12.27
2023-03-31T06:24:40.522Z,12.67
2023-03-31T06:27:07.043Z,12.91
2023-03-31T06:29:33.485Z,13.12
2023-03-31T06:31:59.914Z,13.42
2023-03-31T06:34:28.625Z,13.82
2023-03-31T06:36:54.956Z,14.37
2023-03-31T06:39:21.647Z,14.49
2023-03-31T06:41:47.723Z,14.96
2023-03-31T06:44:14.052Z,15.17
2023-03-31T06:46:40.856Z,15.80
2023-03-31T06:49:07.143Z,15.96
2023-03-31T06:51:33.490Z,15.19
2023-03-31T06:53:59.860Z,14.77
2023-03-31T06:56:26.193Z,15.35
2023-03-31T06:58:52.618Z,14.94
2023-03-31T07:01:19.060Z,14.84
2023-03-31T07:03:45.458Z,14.79
2023-03-31T07:06:11.792Z,14.78
2023-03-31T07:08:38.137Z,15.02
2023-03-31T07:11:05.064Z,15.76
2023-03-31T07:13:30.883Z,16.39
2023-03-31T07:15:57.237Z,16.41
2023-03-31T07:18:23.542Z,17.01
2023-03-31T07:20:49.897Z,17.98
2023-03-31T07:23:16.316Z,18.53
2023-03-31T07:25:42.693Z,18.81
2023-03-31T07:28:09.049Z,18.98
2023-03-31T07:30:35.388Z,19.63
2023-03-31T07:33:01.799Z,19.75
2023-03-31T07:35:28.085Z,19.67
2023-03-31T07:37:54.487Z,19.64
2023-03-31T07:40:20.846Z,19.73
2023-03-31T07:42:49.083Z,19.27
2023-03-31T07:45:13.504Z,18.84
2023-03-31T07:47:40.023Z,19.01
2023-03-31T07:50:06.289Z,19.57
2023-03-31T07:52:32.969Z,19.75
2023-03-31T07:54:59.382Z,19.88
2023-03-31T07:57:25.832Z,20.04
2023-03-31T07:59:52.129Z,20.38
2023-03-31T08:02:18.572Z,20.28
2023-03-31T08:04:44.885Z,19.23
2023-03-31T08:07:11.220Z,17.95
2023-03-31T08:09:37.590Z,17.67
2023-03-31T08:12:03.972Z,17.43
2023-03-31T08:14:40.462Z,17.16
2023-03-31T08:16:56.688Z,16.81
2023-03-31T08:19:23.062Z,16.57
2023-03-31T08:21:49.482Z,16.61
2023-03-31T08:24:15.880Z,16.43
2023-03-31T08:26:42.210Z,16.55
2023-03-31T08:29:09.544Z,17.30
2023-03-31T08:31:35.901Z,17.52
2023-03-31T08:34:02.301Z,17.59
2023-03-31T08:36:28.717Z,17.65
2023-03-31T08:38:55.120Z,17.57
2023-03-31T08:41:21.467Z,18.27
2023-03-31T08:43:47.958Z,18.04
2023-03-31T08:46:14.348Z,17.43
2023-03-31T08:48:40.671Z,16.95
2023-03-31T08:51:07.611Z,17.06
2023-03-31T08:53:33.702Z,17.12
2023-03-31T08:56:00.134Z,16.99
2023-03-31T08:58:26.434Z,16.68
2023-03-31T09:00:52.811Z,16.69
2023-03-31T09:03:19.335Z,16.67
2023-03-31T09:05:58.921Z,16.72
2023-03-31T09:08:11.952Z,16.68
2023-03-31T09:10:38.359Z,16.68
2023-03-31T09:13:04.702Z,16.81
2023-03-31T09:15:31.119Z,18.07
2023-03-31T09:17:57.621Z,19.43
2023-03-31T09:20:23.892Z,19.21
2023-03-31T09:22:50.253Z,18.99
2023-03-31T09:25:16.613Z,19.68
2023-03-31T09:27:42.978Z,20.09
2023-03-31T09:30:09.320Z,19.96
2023-03-31T09:32:35.774Z,20.87
2023-03-31T09:35:02.112Z,21.60
2023-03-31T09:37:28.448Z,20.90
2023-03-31T09:39:54.840Z,21.39
2023-03-31T09:42:21.161Z,20.77
2023-03-31T09:44:47.539Z,21.33
2023-03-31T09:47:13.970Z,21.81
2023-03-31T09:49:40.282Z,21.66
2023-03-31T09:52:06.654Z,21.16
2023-03-31T09:54:33.026Z,21.52
2023-03-31T09:56:59.375Z,21.64
2023-03-31T09:59:25.705Z,22.02
2023-03-31T10:01:52.113Z,21.68
2023-03-31T10:04:18.771Z,21.39
2023-03-31T10:06:45.016Z,21.55
2023-03-31T10:09:11.403Z,21.61
2023-03-31T10:11:37.737Z,20.73
2023-03-31T10:14:04.178Z,21.62
2023-03-31T10:16:30.576Z,21.02
2023-03-31T10:18:56.958Z,20.56
2023-03-31T10:21:23.317Z,20.71
2023-03-31T10:23:49.651Z,21.31
2023-03-31T10:26:15.739Z,20.93
2023-03-31T10:28:42.136Z,21.11
2023-03-31T10:31:08.887Z,21.20
2023-03-31T10:33:35.103Z,20.50
2023-03-31T10:36:01.461Z,21.15
2023-03-31T10:38:27.844Z,22.30
2023-03-31T10:40:54.223Z,21.72
2023-03-31T10:43:20.607Z,20.56
2023-03-31T10:45:47.220Z,20.61
2023-03-31T10:48:13.606Z,21.07
2023-03-31T10:50:40.020Z,21.43
2023-03-31T10:53:06.440Z,21.12
2023-03-31T10:55:32.717Z,21.24
2023-03-31T10:57:59.078Z,20.32
2023-03-31T11:00:25.403Z,19.91
2023-03-31T11:02:52.198Z,19.60
2023-03-31T11:05:18.487Z,19.49
2023-03-31T11:07:44.863Z,19.26
2023-03-31T11:10:11.840Z,19.40
2023-03-31T11:12:38.225Z,19.42
2023-03-31T11:15:04.552Z,19.12
2023-03-31T11:17:31.037Z,18.88
2023-03-31T11:19:57.339Z,18.90
2023-03-31T11:22:24.101Z,18.93
2023-03-31T11:24:50.417Z,18.90
2023-03-31T11:27:16.809Z,18.87
2023-03-31T11:29:43.163Z,18.78
2023-03-31T11:32:09.621Z,18.60
2023-03-31T11:34:35.852Z,18.91
2023-03-31T11:37:02.237Z,19.71
2023-03-31T11:39:28.611Z,19.67
2023-03-31T11:41:55.012Z,19.81
2023-03-31T11:44:21.335Z,20.00
2023-03-31T11:46:47.893Z,20.28
2023-03-31T11:49:14.233Z,20.33
2023-03-31T11:51:40.630Z,20.44
2023-03-31T11:54:07.062Z,20.09
2023-03-31T11:56:33.498Z,19.76
2023-03-31T11:58:59.849Z,19.48
2023-03-31T12:01:26.199Z,19.80
2023-03-31T12:03:53.756Z,19.99
2023-03-31T12:06:20.178Z,20.20
2023-03-31T12:08:46.450Z,20.48
2023-03-31T12:11:12.927Z,20.56
2023-03-31T12:13:39.320Z,20.80
2023-03-31T12:16:05.953Z,20.79
2023-03-31T12:18:32.102Z,20.92
2023-03-31T12:20:58.518Z,20.98
2023-03-31T12:23:24.931Z,21.00
2023-03-31T12:25:51.414Z,21.03
2023-03-31T12:28:17.748Z,21.06
2023-03-31T12:30:45.138Z,21.23
2023-03-31T12:33:11.543Z,21.47
2023-03-31T12:35:37.901Z,21.15
2023-03-31T12:38:06.420Z,20.82
2023-03-31T12:40:32.804Z,20.89
2023-03-31T12:42:59.149Z,21.77
2023-03-31T12:45:25.501Z,22.45
2023-03-31T12:47:51.831Z,22.67
2023-03-31T12:50:18.180Z,22.56
2023-03-31T12:52:44.540Z,21.92
2023-03-31T12:55:10.885Z,21.54
2023-03-31T12:57:37.207Z,20.93
2023-03-31T13:00:03.590Z,20.53
2023-03-31T13:02:30.044Z,20.32
2023-03-31T13:04:56.341Z,20.41
2023-03-31T13:07:28.297Z,20.44
2023-03-31T13:09:49.193Z,20.39
2023-03-31T13:12:15.752Z,20.35
2023-03-31T13:14:42.118Z,20.25
2023-03-31T13:17:08.483Z,20.35
2023-03-31T13:19:34.859Z,20.41
2023-03-31T13:22:01.282Z,20.15
2023-03-31T13:24:27.653Z,19.85
2023-03-31T13:26:54.893Z,19.73
2023-03-31T13:29:20.374Z,19.63
2023-03-31T13:31:46.731Z,19.46
2023-03-31T13:34:13.415Z,19.51
2023-03-31T13:36:39.739Z,19.70
2023-03-31T13:39:06.162Z,19.77
2023-03-31T13:41:32.456Z,19.75
2023-03-31T13:43:58.912Z,19.85
2023-03-31T13:46:25.350Z,19.77
2023-03-31T13:48:51.684Z,19.45
2023-03-31T13:51:18.064Z,19.55
2023-03-31T13:53:44.478Z,19.62
2023-03-31T13:56:11.037Z,19.63
2023-03-31T13:58:37.279Z,19.57
2023-03-31T14:01:05.555Z,19.66
2023-03-31T14:03:30.108Z,19.80
2023-03-31T14:05:56.438Z,19.75
2023-03-31T14:08:22.801Z,19.90
2023-03-31T14:10:49.160Z,20.04
2023-03-31T14:13:18.244Z,19.84
2023-03-31T14:15:42.197Z,19.77
2023-03-31T14:18:08.562Z,19.86
2023-03-31T14:20:34.886Z,19.87
2023-03-31T14:23:01.259Z,19.81
2023-03-31T14:25:27.707Z,19.75
2023-03-31T14:27:54.037Z,19.51
2023-03-31T14:30:20.420Z,19.35
2023-03-31T14:32:46.891Z,19.43
2023-03-31T14:35:13.248Z,19.47
2023-03-31T14:37:39.559Z,19.45
2023-03-31T14:40:05.988Z,19.54
2023-03-31T14:42:32.325Z,19.42
2023-03-31T14:44:58.770Z,19.29
2023-03-31T14:47:25.426Z,19.29
2023-03-31T14:49:51.765Z,19.33
2023-03-31T14:52:20.573Z,19.28
2023-03-31T14:54:46.984Z,19.27
2023-03-31T14:57:13.341Z,19.18
2023-03-31T14:59:39.777Z,19.10
2023-03-31T15:02:07.413Z,19.11
2023-03-31T15:04:41.956Z,18.93
2023-03-31T15:07:00.131Z,18.89
2023-03-31T15:09:26.536Z,18.89
2023-03-31T15:11:52.983Z,18.90
2023-03-31T15:14:19.478Z,18.84
2023-03-31T15:16:45.741Z,18.90
2023-03-31T15:19:12.090Z,18.89
2023-03-31T15:21:38.491Z,18.81
2023-03-31T15:24:04.844Z,18.75
2023-03-31T15:26:40.327Z,18.73
2023-03-31T15:28:57.492Z,18.66
2023-03-31T15:31:24.030Z,18.52
2023-03-31T15:33:50.408Z,18.45
2023-03-31T15:36:16.820Z,18.39
2023-03-31T15:38:43.145Z,18.40
2023-03-31T15:41:10.643Z,18.43
2023-03-31T15:43:36.999Z,18.45
2023-03-31T15:46:03.457Z,18.42
2023-03-31T15:48:30.159Z,18.37
2023-03-31T15:50:56.515Z,18.35
2023-03-31T15:53:23.308Z,18.35
2023-03-31T15:55:49.321Z,18.31
2023-03-31T15:58:15.678Z,18.31
2023-03-31T16:00:42.450Z,18.28
2023-03-31T16:03:09.994Z,18.18
2023-03-31T16:05:43.713Z,18.10
2023-03-31T16:08:03.507Z,18.07
2023-03-31T16:10:30.073Z,18.06
2023-03-31T16:12:56.390Z,18.03
2023-03-31T16:15:25.030Z,17.98
2023-03-31T16:17:49.155Z,17.90
2023-03-31T16:20:15.501Z,17.84
2023-03-31T16:22:41.923Z,17.78
2023-03-31T16:25:08.294Z,17.72
2023-03-31T16:27:34.673Z,17.67
2023-03-31T16:30:01.016Z,17.63
2023-03-31T16:32:27.418Z,17.58
2023-03-31T16:34:53.766Z,17.54
2023-03-31T16:37:20.150Z,17.48
2023-03-31T16:39:46.620Z,17.42
2023-03-31T16:42:13.042Z,17.35
2023-03-31T16:44:40.886Z,17.32
2023-03-31T16:47:05.974Z,17.27
2023-03-31T16:49:32.310Z,17.21
2023-03-31T16:51:58.665Z,17.11
2023-03-31T16:54:25.039Z,17.04
2023-03-31T16:56:51.451Z,16.97
2023-03-31T16:59:17.825Z,16.90
2023-03-31T17:01:44.142Z,16.78
2023-03-31T17:04:10.577Z,16.72
2023-03-31T17:06:36.960Z,16.62
2023-03-31T17:09:03.319Z,16.65
2023-03-31T17:11:30.509Z,16.65
2023-03-31T17:13:56.072Z,16.58
2023-03-31T17:16:32.912Z,16.46
2023-03-31T17:18:49.881Z,16.36
2023-03-31T17:21:16.255Z,16.26
2023-03-31T17:23:42.726Z,16.18
2023-03-31T17:26:09.001Z,16.14
2023-03-31T17:28:35.357Z,16.10
2023-03-31T17:31:01.839Z,16.09
2023-03-31T17:33:28.144Z,16.08
2023-03-31T17:35:54.524Z,16.07
2023-03-31T17:38:20.870Z,16.04
2023-03-31T17:40:47.263Z,15.96
2023-03-31T17:43:13.582Z,15.97
2023-03-31T17:45:40.178Z,15.85
2023-03-31T17:48:06.560Z,15.72
2023-03-31T17:50:32.876Z,15.79
2023-03-31T17:52:59.246Z,15.83
2023-03-31T17:55:25.637Z,15.84
2023-03-31T17:57:51.992Z,15.76
2023-03-31T18:00:18.352Z,15.68
2023-03-31T18:02:44.798Z,15.57
2023-03-31T18:05:11.203Z,15.48
2023-03-31T18:07:37.468Z,15.45
2023-03-31T18:10:04.034Z,15.39
2023-03-31T18:12:30.429Z,15.40
2023-03-31T18:14:56.717Z,15.39
2023-03-31T18:17:23.106Z,15.37
2023-03-31T18:19:49.448Z,15.33
2023-03-31T18:22:15.832Z,15.29
2023-03-31T18:24:42.185Z,15.28
2023-03-31T18:27:08.606Z,15.21
2023-03-31T18:29:35.012Z,15.21
2023-03-31T18:32:01.495Z,15.14
2023-03-31T18:34:27.856Z,15.10
2023-03-31T18:36:54.254Z,15.04
2023-03-31T18:39:20.619Z,15.06
2023-03-31T18:41:47.265Z,15.02
2023-03-31T18:44:13.689Z,14.92
2023-03-31T18:46:40.080Z,14.87
2023-03-31T18:49:06.473Z,14.81
2023-03-31T18:51:32.860Z,14.66
2023-03-31T18:53:59.368Z,14.61
2023-03-31T18:56:25.704Z,14.52
2023-03-31T18:58:52.057Z,14.41
2023-03-31T19:01:18.430Z,14.43
2023-03-31T19:03:44.809Z,14.35
2023-03-31T19:06:11.169Z,14.32
2023-03-31T19:08:37.590Z,14.45
2023-03-31T19:11:04.161Z,14.55
2023-03-31T19:13:30.498Z,14.48
2023-03-31T19:15:56.880Z,14.41
2023-03-31T19:18:23.253Z,14.33
2023-03-31T19:20:49.571Z,14.25
2023-03-31T19:23:16.118Z,14.16
2023-03-31T19:25:42.647Z,13.91
2023-03-31T19:28:09.000Z,13.86
2023-03-31T19:30:35.312Z,13.81
2023-03-31T19:33:01.827Z,13.78
2023-03-31T19:35:28.330Z,13.70
2023-03-31T19:37:54.513Z,13.46
2023-03-31T19:40:20.888Z,13.28
2023-03-31T19:42:47.310Z,13.26
2023-03-31T19:45:14.859Z,13.29
2023-03-31T19:47:41.300Z,13.24
2023-03-31T19:50:07.651Z,13.25
2023-03-31T19:52:34.158Z,13.29
2023-03-31T19:55:00.466Z,13.26
2023-03-31T19:57:26.928Z,13.27
2023-03-31T19:59:54.767Z,13.24
2023-03-31T20:02:21.438Z,13.20
2023-03-31T20:04:47.568Z,13.17
2023-03-31T20:07:14.010Z,13.16
2023-03-31T20:09:40.327Z,13.15
2023-03-31T20:12:06.723Z,13.08
2023-03-31T20:14:33.099Z,13.02
2023-03-31T20:16:59.438Z,13.01
2023-03-31T20:19:25.798Z,13.04
2023-03-31T20:21:52.139Z,13.04
2023-03-31T20:24:18.526Z,12.95
2023-03-31T20:26:44.929Z,12.90
2023-03-31T20:29:11.267Z,12.83
2023-03-31T20:31:37.924Z,12.80
2023-03-31T20:34:04.281Z,12.74
2023-03-31T20:36:30.620Z,12.69
2023-03-31T20:38:56.941Z,12.62
2023-03-31T20:41:23.325Z,12.49
2023-03-31T20:43:49.639Z,12.44
2023-03-31T20:46:16.042Z,12.40
2023-03-31T20:48:42.361Z,12.45
2023-03-31T20:51:08.751Z,12.36
2023-03-31T20:53:35.057Z,12.29
2023-03-31T20:56:01.498Z,12.24
2023-03-31T20:58:27.800Z,12.22
2023-03-31T21:00:54.234Z,12.24
2023-03-31T21:03:20.533Z,12.40
2023-03-31T21:05:46.865Z,12.51
2023-03-31T21:08:13.237Z,12.49
2023-03-31T21:10:39.589Z,12.41
2023-03-31T21:13:06.004Z,12.41
2023-03-31T21:15:32.630Z,12.49
2023-03-31T21:17:58.813Z,12.43
2023-03-31T21:20:25.402Z,12.40
2023-03-31T21:22:51.774Z,12.40
2023-03-31T21:25:18.176Z,12.36
2023-03-31T21:27:44.542Z,12.30
2023-03-31T21:30:11.633Z,12.23
2023-03-31T21:32:38.006Z,12.16
2023-03-31T21:35:04.338Z,12.08
2023-03-31T21:37:30.661Z,12.02
2023-03-31T21:39:57.057Z,11.93
2023-03-31T21:42:23.462Z,11.85
2023-03-31T21:44:49.847Z,11.80
2023-03-31T21:47:16.172Z,11.84
2023-03-31T21:49:42.556Z,11.94
2023-03-31T21:52:08.960Z,11.95
2023-03-31T21:54:35.345Z,11.88
2023-03-31T21:57:01.839Z,11.81
2023-03-31T21:59:28.223Z,11.78
2023-03-31T22:01:54.638Z,11.76
2023-03-31T22:04:20.964Z,11.75
2023-03-31T22:06:47.232Z,11.78
2023-03-31T22:09:13.673Z,11.81
2023-03-31T22:11:39.974Z,11.82
2023-03-31T22:14:06.357Z,11.89
2023-03-31T22:16:32.750Z,11.95
2023-03-31T22:18:59.056Z,11.97
2023-03-31T22:21:25.485Z,11.86
2023-03-31T22:23:51.861Z,11.97
2023-03-31T22:26:18.244Z,12.20
2023-03-31T22:28:44.604Z,12.21
2023-03-31T22:31:11.078Z,12.07
2023-03-31T22:33:37.386Z,11.97
2023-03-31T22:36:03.718Z,12.01
2023-03-31T22:38:30.113Z,12.02
2023-03-31T22:40:56.475Z,11.90
2023-03-31T22:43:22.850Z,11.84
2023-03-31T22:45:49.212Z,11.78
2023-03-31T22:48:15.606Z,11.78
2023-03-31T22:50:41.990Z,11.82
2023-03-31T22:53:08.377Z,11.88
2023-03-31T22:55:34.910Z,11.93
2023-03-31T22:58:01.068Z,11.98
2023-03-31T23:00:27.650Z,11.99
2023-03-31T23:02:54.025Z,11.98
2023-03-31T23:05:20.316Z,11.90
2023-03-31T23:07:46.713Z,11.85
2023-03-31T23:10:13.013Z,11.85
2023-03-31T23:12:39.381Z,11.77
2023-03-31T23:15:05.770Z,11.83
2023-03-31T23:17:32.148Z,11.84
2023-03-31T23:19:58.481Z,11.68
2023-03-31T23:22:24.885Z,11.61
2023-03-31T23:24:51.242Z,11.46
2023-03-31T23:27:17.893Z,11.35
2023-03-31T23:29:44.220Z,11.26
2023-03-31T23:32:10.651Z,11.24
2023-03-31T23:34:36.991Z,11.18
2023-03-31T23:37:03.374Z,11.19
2023-03-31T23:39:29.690Z,11.27
2023-03-31T23:41:56.070Z,11.34
2023-03-31T23:44:22.463Z,11.28
2023-03-31T23:46:48.831Z,11.32
2023-03-31T23:49:15.186Z,11.27
2023-03-31T23:51:41.576Z,11.23
2023-03-31T23:54:07.882Z,11.03
2023-03-31T23:56:34.572Z,10.71
2023-03-31T23:59:00.872Z,10.63
